Time;durP1;ratioP1;P1;durP2;ratioP2;P2;SDS_P1;SDS_P2;PMS_P1;PMS_P2;Temp;Humidity;BMP_temperature;BMP_pressure;BME280_temperature;BME280_humidity;BME280_pressure;Samples;Min_cycle;Max_cycle;Signal;HPM_P1;HPM_P2
2022/06/29 00:00:11;;;;;;;4.45;3.53;;;22.40;99.90;;;;;;5037483;28;20267;-74
2022/06/29 00:02:37;;;;;;;6.78;3.85;;;22.30;99.90;;;;;;5037755;28;20181;-74
2022/06/29 00:05:04;;;;;;;3.85;3.38;;;22.20;99.90;;;;;;5015767;28;20739;-74
2022/06/29 00:07:29;;;;;;;3.55;3.25;;;22.30;99.90;;;;;;5017320;28;20177;-75
2022/06/29 00:09:55;;;;;;;5.78;4.40;;;22.30;99.90;;;;;;5051468;28;20282;-76
2022/06/29 00:12:20;;;;;;;4.22;3.20;;;22.40;99.90;;;;;;5068383;28;20190;-77
2022/06/29 00:14:46;;;;;;;3.58;2.60;;;22.40;99.90;;;;;;5069582;28;20191;-75
2022/06/29 00:17:12;;;;;;;8.48;4.78;;;22.40;99.90;;;;;;5068992;28;20180;-74
2022/06/29 00:19:41;;;;;;;4.32;3.35;;;22.30;99.90;;;;;;5068169;28;20275;-73
2022/06/29 00:22:07;;;;;;;4.30;3.60;;;22.40;99.90;;;;;;5069427;28;20191;-75
2022/06/29 00:24:34;;;;;;;3.80;3.05;;;22.30;99.90;;;;;;5069623;28;20219;-75
2022/06/29 00:27:00;;;;;;;3.15;2.85;;;22.30;99.90;;;;;;5047046;28;20196;-73
2022/06/29 00:29:27;;;;;;;4.90;2.95;;;22.30;99.90;;;;;;5044596;28;20185;-74
2022/06/29 00:31:52;;;;;;;3.40;2.60;;;22.20;99.90;;;;;;5035925;28;20288;-73
2022/06/29 00:34:18;;;;;;;5.20;3.53;;;22.20;99.90;;;;;;5040307;28;20200;-75
2022/06/29 00:36:44;;;;;;;3.22;2.85;;;22.30;99.90;;;;;;5042022;28;20176;-75
2022/06/29 00:39:10;;;;;;;2.92;2.60;;;22.20;99.90;;;;;;5036411;28;20173;-75
2022/06/29 00:41:41;;;;;;;4.20;3.08;;;22.30;99.90;;;;;;5035701;28;20278;-72
2022/06/29 00:44:10;;;;;;;2.80;2.60;;;22.40;99.90;;;;;;5034646;28;20180;-74
2022/06/29 00:46:53;;;;;;;2.83;2.58;;;22.20;99.90;;;;;;5034450;28;20632;-74
2022/06/29 00:49:21;;;;;;;3.00;2.65;;;22.10;99.90;;;;;;5034217;28;20544;-73
2022/06/29 00:51:48;;;;;;;3.70;2.97;;;22.20;99.90;;;;;;5034707;28;20650;-76
2022/06/29 00:54:18;;;;;;;4.32;3.33;;;22.10;99.90;;;;;;5034808;28;20231;-74
2022/06/29 00:56:44;;;;;;;3.67;3.00;;;21.90;99.90;;;;;;5035965;28;20188;-73
2022/06/29 00:59:12;;;;;;;7.75;3.30;;;21.80;99.90;;;;;;5035151;28;20573;-74
2022/06/29 01:01:39;;;;;;;3.72;3.22;;;22.00;99.90;;;;;;5034425;28;20235;-74
2022/06/29 01:04:04;;;;;;;5.88;4.32;;;22.10;99.90;;;;;;5033995;28;20660;-73
2022/06/29 01:06:30;;;;;;;3.50;3.05;;;22.20;99.90;;;;;;5024554;28;20223;-74
2022/06/29 01:08:55;;;;;;;3.45;3.15;;;22.30;99.90;;;;;;5034050;28;20208;-73
2022/06/29 01:11:21;;;;;;;3.00;2.70;;;22.30;99.90;;;;;;5034165;28;20173;-73
2022/06/29 01:13:48;;;;;;;3.75;3.28;;;22.30;99.90;;;;;;5033677;28;20184;-74
2022/06/29 01:16:13;;;;;;;3.53;3.22;;;22.20;99.90;;;;;;5033733;28;20268;-73
2022/06/29 01:18:39;;;;;;;4.45;3.42;;;22.30;99.90;;;;;;5034131;28;20268;-75
2022/06/29 01:21:05;;;;;;;4.20;3.80;;;22.50;99.90;;;;;;5034133;28;20498;-73
2022/06/29 01:23:32;;;;;;;3.42;3.13;;;22.50;99.90;;;;;;5034054;28;20205;-74
2022/06/29 01:26:03;;;;;;;3.22;2.92;;;22.60;99.90;;;;;;5033889;28;20239;-72
2022/06/29 01:28:28;;;;;;;3.83;3.38;;;22.20;99.90;;;;;;5033513;28;20637;-73
2022/06/29 01:30:54;;;;;;;5.50;3.55;;;22.20;99.90;;;;;;5033298;28;20226;-72
2022/06/29 01:33:19;;;;;;;3.67;3.38;;;21.90;99.90;;;;;;5034117;28;20200;-73
2022/06/29 01:35:45;;;;;;;3.30;3.00;;;22.10;99.90;;;;;;5009691;28;20190;-74
2022/06/29 01:38:10;;;;;;;4.10;3.70;;;22.20;99.90;;;;;;5013758;28;20188;-74
2022/06/29 01:40:37;;;;;;;4.50;3.60;;;22.20;99.90;;;;;;5013905;28;20181;-74
2022/06/29 01:43:03;;;;;;;5.55;4.45;;;22.00;99.90;;;;;;5013448;28;20177;-74
2022/06/29 01:45:28;;;;;;;4.00;3.28;;;22.10;99.90;;;;;;5013929;28;20224;-74
2022/06/29 01:47:54;;;;;;;3.90;3.55;;;22.10;99.90;;;;;;5013712;28;20613;-72
2022/06/29 01:50:19;;;;;;;5.38;3.60;;;22.20;99.90;;;;;;5014313;28;20177;-74
2022/06/29 01:52:45;;;;;;;7.28;3.28;;;22.20;99.90;;;;;;5013993;28;20223;-73
2022/06/29 01:55:11;;;;;;;4.25;3.78;;;22.00;99.90;;;;;;5015076;28;20173;-73
2022/06/29 01:57:36;;;;;;;7.13;5.78;;;22.20;99.90;;;;;;5014698;28;20185;-74
2022/06/29 02:00:02;;;;;;;6.18;3.70;;;22.20;99.90;;;;;;5014678;28;20177;-73
2022/06/29 02:02:28;;;;;;;6.63;4.65;;;22.30;99.90;;;;;;5014924;28;20234;-73
2022/06/29 02:04:53;;;;;;;5.88;3.38;;;22.30;99.90;;;;;;5014636;28;20599;-73
2022/06/29 02:07:19;;;;;;;7.07;5.88;;;22.10;99.90;;;;;;5014453;28;20284;-73
2022/06/29 02:09:44;;;;;;;4.95;4.22;;;22.10;99.90;;;;;;5012457;28;20185;-73
2022/06/29 02:12:10;;;;;;;4.55;3.90;;;22.20;99.90;;;;;;5014646;28;20189;-72
2022/06/29 02:14:35;;;;;;;4.50;3.65;;;22.20;99.90;;;;;;5014845;28;20272;-74
2022/06/29 02:17:01;;;;;;;6.13;3.97;;;22.10;99.90;;;;;;5014057;28;20268;-73
2022/06/29 02:19:26;;;;;;;6.15;4.68;;;22.30;99.90;;;;;;5013430;28;20187;-74
2022/06/29 02:21:52;;;;;;;4.78;3.97;;;22.40;99.90;;;;;;5013324;28;20256;-73
2022/06/29 02:24:17;;;;;;;5.15;4.25;;;22.20;99.90;;;;;;5013432;28;20259;-74
2022/06/29 02:26:43;;;;;;;5.95;4.75;;;22.20;99.90;;;;;;5012898;28;20273;-73
2022/06/29 02:29:08;;;;;;;5.03;3.90;;;22.40;99.90;;;;;;5004491;28;20186;-73
2022/06/29 02:37:02;;;;;;;4.50;3.38;;;22.50;99.90;;;;;;5014011;28;20260;-76
2022/06/29 02:39:28;;;;;;;3.72;3.40;;;22.20;99.90;;;;;;5020036;28;20180;-74
2022/06/29 02:41:53;;;;;;;6.90;4.95;;;22.10;99.90;;;;;;5033640;28;20185;-73
2022/06/29 02:44:19;;;;;;;10.27;8.18;;;22.10;99.90;;;;;;5027363;28;20683;-73
2022/06/29 02:46:44;;;;;;;8.70;6.85;;;22.10;99.90;;;;;;5032964;28;20311;-76
2022/06/29 02:49:09;;;;;;;11.77;8.93;;;22.10;99.90;;;;;;5032738;28;20647;-73
2022/06/29 02:51:35;;;;;;;5.60;4.88;;;22.10;99.90;;;;;;5032665;28;20177;-73
2022/06/29 02:54:00;;;;;;;4.38;3.70;;;22.00;99.90;;;;;;5032782;28;20623;-75
2022/06/29 02:56:26;;;;;;;5.07;4.47;;;21.90;99.90;;;;;;5032504;28;20234;-74
2022/06/29 02:58:51;;;;;;;4.40;4.00;;;22.00;99.90;;;;;;5032137;28;20184;-74
2022/06/29 03:01:17;;;;;;;4.95;3.92;;;21.80;99.90;;;;;;5032571;28;20200;-73
2022/06/29 03:03:42;;;;;;;3.47;3.17;;;21.90;99.90;;;;;;5033721;28;20224;-73
2022/06/29 03:06:08;;;;;;;4.97;3.85;;;22.00;99.90;;;;;;5036437;28;20634;-75
2022/06/29 03:08:33;;;;;;;5.55;4.70;;;22.00;99.90;;;;;;5036947;28;20613;-76
2022/06/29 03:10:59;;;;;;;9.40;6.47;;;21.80;99.90;;;;;;5036442;28;20204;-76
2022/06/29 03:13:25;;;;;;;8.32;5.38;;;21.80;99.90;;;;;;5035906;28;20223;-74
2022/06/29 03:15:51;;;;;;;6.65;4.63;;;21.70;99.90;;;;;;5036356;28;20177;-74
2022/06/29 03:18:17;;;;;;;4.68;4.18;;;21.70;99.90;;;;;;5035888;28;20191;-74
2022/06/29 03:20:42;;;;;;;4.95;4.50;;;21.80;99.90;;;;;;5036451;28;20181;-73
2022/06/29 03:23:08;;;;;;;4.72;4.25;;;21.60;99.90;;;;;;5036778;28;20561;-74
2022/06/29 03:25:33;;;;;;;5.72;3.78;;;21.70;99.90;;;;;;5036525;28;20669;-75
2022/06/29 03:27:59;;;;;;;5.45;3.85;;;21.70;99.90;;;;;;5049432;28;20584;-74
2022/06/29 03:30:24;;;;;;;4.97;3.72;;;21.80;99.90;;;;;;5057834;28;20626;-76
2022/06/29 03:32:50;;;;;;;4.32;3.70;;;22.00;99.90;;;;;;5057312;28;20259;-73
2022/06/29 03:35:15;;;;;;;3.60;3.30;;;22.00;99.90;;;;;;5058624;28;20196;-75
2022/06/29 03:37:41;;;;;;;4.20;3.72;;;22.00;99.90;;;;;;5060145;28;20554;-74
2022/06/29 03:40:07;;;;;;;4.47;3.50;;;22.00;99.90;;;;;;5051149;28;20182;-74
2022/06/29 03:42:32;;;;;;;7.03;3.50;;;21.90;99.90;;;;;;5016972;28;20223;-75
2022/06/29 03:44:58;;;;;;;4.13;3.72;;;21.80;99.90;;;;;;5030397;28;20244;-75
2022/06/29 03:47:25;;;;;;;4.95;3.55;;;22.00;99.90;;;;;;5033823;28;20616;-77
2022/06/29 03:49:51;;;;;;;4.60;3.72;;;21.70;99.90;;;;;;5055892;28;20175;-74
2022/06/29 03:52:17;;;;;;;5.13;4.20;;;21.50;99.90;;;;;;5055308;28;20180;-75
2022/06/29 03:54:42;;;;;;;5.13;3.40;;;21.70;99.90;;;;;;5026457;28;20726;-75
2022/06/29 03:57:08;;;;;;;5.28;3.88;;;21.70;99.90;;;;;;5015958;28;20564;-73
2022/06/29 03:59:33;;;;;;;4.78;4.07;;;21.80;99.90;;;;;;5012323;28;20188;-75
2022/06/29 04:01:59;;;;;;;4.20;3.80;;;21.60;99.90;;;;;;5013535;28;20269;-73
2022/06/29 04:04:24;;;;;;;4.90;3.88;;;21.50;99.90;;;;;;5015703;28;20316;-73
2022/06/29 04:06:50;;;;;;;4.50;4.00;;;21.70;99.90;;;;;;5015333;28;20544;-73
2022/06/29 04:09:15;;;;;;;4.40;4.00;;;21.50;99.90;;;;;;5015587;28;20617;-73
2022/06/29 04:11:52;;;;;;;6.78;4.18;;;21.70;99.90;;;;;;5015627;28;20174;-73
2022/06/29 04:14:28;;;;;;;5.00;3.70;;;21.80;99.90;;;;;;5017607;28;20575;-72
2022/06/29 04:16:55;;;;;;;5.15;4.32;;;21.60;99.90;;;;;;5017420;28;20197;-74
2022/06/29 04:19:22;;;;;;;5.53;4.47;;;21.70;99.90;;;;;;5016574;28;20195;-74
2022/06/29 04:21:48;;;;;;;6.45;4.78;;;21.80;99.90;;;;;;5016038;28;20625;-74
2022/06/29 04:24:14;;;;;;;4.93;4.10;;;21.80;99.90;;;;;;5015331;28;20629;-72
2022/06/29 04:26:39;;;;;;;5.28;4.60;;;21.30;99.90;;;;;;5010906;28;20229;-74
2022/06/29 04:29:05;;;;;;;4.80;4.30;;;21.30;99.90;;;;;;5014960;28;20529;-75
2022/06/29 04:31:31;;;;;;;4.97;4.47;;;21.30;99.90;;;;;;5015037;28;20173;-76
2022/06/29 04:33:56;;;;;;;4.85;4.20;;;21.40;99.90;;;;;;5037879;28;20184;-73
2022/06/29 04:36:22;;;;;;;5.30;4.22;;;21.60;99.90;;;;;;5055250;28;20183;-74
2022/06/29 04:38:47;;;;;;;6.13;4.88;;;21.40;99.90;;;;;;5035893;28;20614;-75
2022/06/29 04:41:13;;;;;;;6.82;4.57;;;21.60;99.90;;;;;;5034762;28;20181;-75
2022/06/29 04:43:39;;;;;;;5.30;4.78;;;21.70;99.90;;;;;;5030311;28;20254;-73
2022/06/29 04:46:20;;;;;;;6.38;4.70;;;21.30;99.90;;;;;;5011878;28;20213;-73
2022/06/29 04:49:04;;;;;;;5.93;4.28;;;21.20;99.90;;;;;;5030780;28;20184;-74
2022/06/29 04:51:32;;;;;;;5.35;4.82;;;21.60;99.90;;;;;;5038662;28;20196;-76
2022/06/29 04:53:58;;;;;;;5.63;4.88;;;21.30;99.90;;;;;;5037551;28;20205;-73
2022/06/29 04:56:26;;;;;;;5.22;4.80;;;21.70;99.90;;;;;;5039531;28;20192;-75
2022/06/29 04:58:53;;;;;;;5.85;5.20;;;21.50;99.90;;;;;;5024835;28;20260;-73
2022/06/29 05:01:21;;;;;;;6.30;5.32;;;21.40;99.90;;;;;;5018091;28;20191;-74
2022/06/29 05:03:46;;;;;;;6.72;5.10;;;21.40;99.90;;;;;;5011128;28;20661;-74
2022/06/29 05:06:12;;;;;;;6.18;5.40;;;21.30;99.90;;;;;;5015091;28;20307;-73
2022/06/29 05:08:38;;;;;;;6.45;5.32;;;21.60;99.90;;;;;;5009558;28;20505;-72
2022/06/29 05:11:03;;;;;;;5.35;4.75;;;21.70;99.90;;;;;;5020007;28;20187;-73
2022/06/29 05:13:29;;;;;;;7.03;4.78;;;21.30;99.90;;;;;;5035171;28;20211;-71
2022/06/29 05:15:54;;;;;;;6.68;5.07;;;21.10;99.90;;;;;;5015060;28;20177;-72
2022/06/29 05:18:20;;;;;;;5.93;5.18;;;20.80;99.90;;;;;;5030476;28;20655;-72
2022/06/29 05:20:45;;;;;;;6.10;5.20;;;20.70;99.90;;;;;;5041345;28;20255;-73
2022/06/29 05:23:11;;;;;;;5.97;5.35;;;20.70;99.90;;;;;;5040848;28;20173;-71
2022/06/29 05:25:37;;;;;;;6.40;5.18;;;20.60;99.90;;;;;;5029266;28;20224;-74
2022/06/29 05:28:03;;;;;;;5.82;5.25;;;20.60;99.90;;;;;;5011006;28;20189;-74
2022/06/29 05:30:28;;;;;;;6.70;5.55;;;20.50;99.90;;;;;;5019367;28;20622;-71
2022/06/29 05:32:54;;;;;;;5.85;5.13;;;20.40;99.90;;;;;;5005302;28;20512;-72
2022/06/29 05:35:20;;;;;;;8.07;5.43;;;20.30;99.90;;;;;;5049713;28;20279;-71
2022/06/29 05:37:45;;;;;;;7.68;5.47;;;20.40;99.90;;;;;;5053872;28;20183;-72
2022/06/29 05:40:11;;;;;;;9.00;5.53;;;20.40;99.90;;;;;;5053954;28;20176;-73
2022/06/29 05:42:36;;;;;;;7.75;5.13;;;20.30;99.90;;;;;;5033521;28;20192;-71
2022/06/29 05:45:02;;;;;;;6.68;5.72;;;20.30;99.90;;;;;;5029429;28;20220;-72
2022/06/29 05:47:28;;;;;;;5.75;5.15;;;20.40;99.90;;;;;;5025040;28;20196;-71
2022/06/29 05:49:57;;;;;;;5.25;4.63;;;20.40;99.90;;;;;;5034573;28;20226;-71
2022/06/29 05:52:23;;;;;;;5.30;4.70;;;20.50;99.90;;;;;;5034275;28;20227;-72
2022/06/29 05:54:48;;;;;;;6.07;4.68;;;20.50;99.90;;;;;;5035365;28;20180;-74
2022/06/29 05:57:14;;;;;;;5.32;4.20;;;20.40;99.90;;;;;;5020898;28;20185;-73
2022/06/29 05:59:39;;;;;;;4.60;3.97;;;20.30;99.90;;;;;;5026128;28;20198;-73
2022/06/29 06:02:05;;;;;;;8.52;4.10;;;20.30;99.90;;;;;;5044204;28;20183;-72
2022/06/29 06:04:31;;;;;;;5.25;3.80;;;20.40;99.90;;;;;;5026253;28;20225;-72
2022/06/29 06:06:56;;;;;;;5.07;3.60;;;20.20;99.90;;;;;;5016071;28;20185;-71
2022/06/29 06:09:26;;;;;;;4.88;4.13;;;20.50;99.90;;;;;;5014060;28;20530;-73
2022/06/29 06:11:53;;;;;;;5.88;4.05;;;20.50;99.90;;;;;;5016089;28;20246;-72
2022/06/29 06:14:18;;;;;;;3.65;3.35;;;20.40;99.90;;;;;;5033431;28;20180;-72
2022/06/29 06:16:43;;;;;;;4.20;3.80;;;20.40;99.90;;;;;;5033147;28;20187;-72
2022/06/29 06:19:09;;;;;;;3.72;3.28;;;20.30;99.90;;;;;;5033487;28;20187;-73
2022/06/29 06:21:37;;;;;;;3.78;3.38;;;20.20;99.90;;;;;;5033854;28;20185;-71
2022/06/29 06:24:03;;;;;;;5.03;3.92;;;20.30;99.90;;;;;;5033957;28;20308;-70
2022/06/29 06:26:29;;;;;;;7.18;3.65;;;20.20;99.90;;;;;;5046357;28;20613;-73
2022/06/29 06:28:55;;;;;;;4.28;3.28;;;20.30;99.90;;;;;;5028794;28;20180;-72
2022/06/29 06:31:21;;;;;;;3.42;3.13;;;20.20;99.90;;;;;;5019813;28;20192;-71
2022/06/29 06:33:46;;;;;;;3.28;2.90;;;20.10;99.90;;;;;;5033371;28;20647;-72
2022/06/29 06:36:12;;;;;;;3.80;3.25;;;20.10;99.90;;;;;;5033128;28;20173;-74
2022/06/29 06:38:37;;;;;;;3.33;3.03;;;20.20;99.90;;;;;;5035910;28;20616;-71
2022/06/29 06:41:21;;;;;;;4.40;3.22;;;20.10;99.90;;;;;;5036917;28;20258;-72
2022/06/29 06:43:47;;;;;;;4.55;3.13;;;20.00;99.90;;;;;;5037177;28;20181;-72
2022/06/29 06:46:12;;;;;;;3.67;3.35;;;20.00;99.90;;;;;;5036969;28;20224;-72
2022/06/29 06:48:38;;;;;;;3.83;2.83;;;20.10;99.90;;;;;;5037148;28;20203;-73
2022/06/29 06:51:03;;;;;;;3.50;3.20;;;19.90;99.90;;;;;;5031288;28;20181;-72
2022/06/29 06:53:29;;;;;;;4.93;3.35;;;19.90;99.90;;;;;;5023628;28;20177;-72
2022/06/29 06:55:54;;;;;;;4.38;3.28;;;20.00;99.90;;;;;;5027678;28;20579;-73
2022/06/29 06:58:20;;;;;;;3.33;3.00;;;20.10;99.90;;;;;;5032130;28;20294;-74
2022/06/29 07:00:45;;;;;;;3.35;2.97;;;20.10;99.90;;;;;;5034560;28;20221;-71
2022/06/29 07:03:11;;;;;;;3.90;3.13;;;20.00;99.90;;;;;;5016729;28;20630;-72
2022/06/29 07:05:37;;;;;;;4.63;3.58;;;20.10;99.90;;;;;;5016662;28;20242;-71
2022/06/29 07:08:03;;;;;;;3.88;3.40;;;20.00;99.90;;;;;;5025055;28;20183;-72
2022/06/29 07:10:28;;;;;;;3.78;3.40;;;20.00;99.90;;;;;;5056708;28;20532;-71
2022/06/29 07:12:54;;;;;;;3.90;3.50;;;20.30;99.90;;;;;;5056420;28;20234;-72
2022/06/29 07:15:19;;;;;;;5.45;4.10;;;20.50;99.90;;;;;;5056505;28;20188;-72
2022/06/29 07:17:45;;;;;;;3.67;3.38;;;20.60;99.90;;;;;;5056111;28;20176;-72
2022/06/29 07:20:10;;;;;;;4.68;3.47;;;20.70;99.90;;;;;;5056012;28;20183;-72
2022/06/29 07:22:36;;;;;;;4.13;3.72;;;20.70;99.90;;;;;;5056135;28;20184;-72
2022/06/29 07:25:02;;;;;;;3.92;3.55;;;20.80;99.90;;;;;;5056399;28;20222;-72
2022/06/29 07:27:28;;;;;;;4.05;3.50;;;20.70;99.90;;;;;;5055840;28;20183;-71
2022/06/29 07:29:53;;;;;;;4.55;3.50;;;20.70;99.90;;;;;;5055719;28;20254;-72
2022/06/29 07:32:20;;;;;;;4.10;3.55;;;20.80;99.90;;;;;;5055862;28;20180;-71
2022/06/29 07:34:45;;;;;;;5.25;3.88;;;20.60;99.90;;;;;;5055994;28;20179;-72
2022/06/29 07:37:11;;;;;;;4.20;3.50;;;20.70;99.90;;;;;;5055558;28;20630;-74
2022/06/29 07:39:37;;;;;;;5.35;4.05;;;20.80;99.90;;;;;;5057897;28;20180;-73
2022/06/29 07:42:03;;;;;;;4.45;3.92;;;20.80;99.90;;;;;;5057171;28;20593;-72
2022/06/29 07:44:29;;;;;;;5.43;4.03;;;20.90;99.90;;;;;;5056075;28;20301;-73
2022/06/29 07:46:55;;;;;;;5.95;4.30;;;20.80;99.90;;;;;;5055945;28;20214;-72
2022/06/29 07:49:20;;;;;;;4.65;3.72;;;20.80;99.90;;;;;;5054699;28;20176;-72
2022/06/29 07:51:47;;;;;;;4.28;3.50;;;20.80;99.90;;;;;;5055581;28;20183;-72
2022/06/29 07:54:13;;;;;;;4.40;3.97;;;20.80;99.90;;;;;;5055829;28;20203;-72
2022/06/29 07:56:39;;;;;;;4.40;4.00;;;20.80;99.90;;;;;;5055270;28;20214;-72
2022/06/29 07:59:07;;;;;;;6.25;4.15;;;20.90;99.90;;;;;;5055527;28;20180;-73
2022/06/29 08:01:33;;;;;;;7.05;4.20;;;21.00;99.90;;;;;;5055515;28;20172;-73
2022/06/29 08:03:58;;;;;;;5.70;4.75;;;20.90;99.90;;;;;;5055952;28;20718;-72
2022/06/29 08:06:24;;;;;;;8.02;4.28;;;20.70;99.90;;;;;;5055575;28;20320;-73
2022/06/29 08:08:50;;;;;;;5.90;3.95;;;20.80;99.90;;;;;;5055377;28;20447;-73
2022/06/29 08:11:16;;;;;;;4.85;4.05;;;20.70;99.90;;;;;;5055355;28;20229;-72
2022/06/29 08:13:41;;;;;;;4.28;3.88;;;20.70;99.90;;;;;;5055537;28;20207;-72
2022/06/29 08:16:08;;;;;;;5.47;4.13;;;20.90;99.90;;;;;;5054768;28;20187;-72
2022/06/29 08:18:34;;;;;;;4.93;4.38;;;20.80;99.90;;;;;;5017627;28;20196;-73
2022/06/29 08:21:02;;;;;;;5.40;4.40;;;20.90;99.90;;;;;;5055076;28;20176;-73
2022/06/29 08:23:28;;;;;;;5.18;4.60;;;20.80;99.90;;;;;;5055161;28;20524;-73
2022/06/29 08:25:53;;;;;;;6.32;5.00;;;20.90;99.90;;;;;;5055062;28;20227;-73
2022/06/29 08:28:19;;;;;;;4.78;4.28;;;20.90;99.90;;;;;;5054841;28;20187;-71
2022/06/29 08:30:44;;;;;;;5.28;4.40;;;20.90;99.90;;;;;;5055451;28;20203;-73
2022/06/29 08:33:10;;;;;;;5.05;4.55;;;21.10;99.90;;;;;;5054823;28;20715;-73
2022/06/29 08:35:36;;;;;;;4.43;4.03;;;21.10;99.90;;;;;;5038990;28;20192;-73
2022/06/29 08:38:02;;;;;;;5.95;5.13;;;21.10;99.90;;;;;;5035496;28;20585;-73
2022/06/29 08:40:40;;;;;;;5.88;4.70;;;21.10;99.90;;;;;;5035842;28;20516;-73
2022/06/29 08:43:07;;;;;;;5.80;4.93;;;21.20;99.90;;;;;;5037821;28;20187;-73
2022/06/29 08:45:32;;;;;;;5.30;4.80;;;21.30;99.90;;;;;;5040989;28;20220;-73
2022/06/29 08:47:58;;;;;;;5.43;4.88;;;21.50;99.90;;;;;;5043000;28;20173;-72
2022/06/29 08:50:23;;;;;;;4.40;4.00;;;21.60;99.90;;;;;;5042652;28;20303;-73
2022/06/29 08:52:49;;;;;;;5.03;4.53;;;21.80;99.90;;;;;;5039019;28;20676;-73
2022/06/29 08:55:17;;;;;;;5.38;4.88;;;21.80;99.90;;;;;;5035049;28;20180;-74
2022/06/29 08:57:42;;;;;;;5.57;4.53;;;21.80;99.90;;;;;;5034859;28;20215;-73
2022/06/29 09:00:09;;;;;;;5.18;4.18;;;22.10;99.90;;;;;;5034211;28;20200;-74
2022/06/29 09:02:35;;;;;;;5.75;4.82;;;22.40;99.90;;;;;;5034097;28;20173;-74
2022/06/29 09:05:01;;;;;;;6.60;5.60;;;22.60;99.90;;;;;;5034243;28;20641;-74
2022/06/29 09:07:27;;;;;;;7.43;5.82;;;22.30;99.90;;;;;;5030297;28;20188;-73
2022/06/29 09:10:13;;;;;;;6.40;5.50;;;22.30;99.90;;;;;;5034896;28;20180;-74
2022/06/29 09:12:39;;;;;;;7.78;5.25;;;22.00;99.90;;;;;;5034862;28;20181;-73
2022/06/29 09:15:09;;;;;;;6.38;5.78;;;21.90;99.90;;;;;;5020369;28;20205;-73
2022/06/29 09:17:36;;;;;;;7.88;6.00;;;22.30;99.90;;;;;;5015098;28;20196;-75
2022/06/29 09:20:03;;;;;;;13.45;6.28;;;22.20;99.90;;;;;;5029497;28;20181;-74
2022/06/29 09:22:29;;;;;;;7.55;5.75;;;22.20;99.90;;;;;;5042728;28;20231;-73
2022/06/29 09:24:54;;;;;;;6.85;6.15;;;22.40;99.90;;;;;;5034565;28;20204;-73
2022/06/29 09:27:23;;;;;;;7.40;5.93;;;22.20;99.90;;;;;;5033825;28;20177;-73
2022/06/29 09:29:48;;;;;;;6.72;5.50;;;22.10;99.90;;;;;;5029956;28;20651;-73
2022/06/29 09:32:19;;;;;;;10.15;5.70;;;22.20;99.90;;;;;;5033964;28;20264;-73
2022/06/29 09:34:49;;;;;;;6.13;5.38;;;22.20;99.90;;;;;;5014260;28;20212;-72
2022/06/29 09:37:23;;;;;;;8.95;6.38;;;22.20;99.90;;;;;;5014354;28;20218;-73
2022/06/29 09:39:53;;;;;;;6.80;5.63;;;22.40;99.90;;;;;;5014052;28;20209;-73
2022/06/29 09:42:21;;;;;;;6.75;5.68;;;22.30;99.90;;;;;;5014335;28;20197;-73
2022/06/29 09:44:48;;;;;;;6.90;5.88;;;22.30;99.90;;;;;;5024422;28;20215;-74
2022/06/29 09:47:16;;;;;;;5.57;5.03;;;22.30;99.90;;;;;;5034187;28;20191;-73
2022/06/29 09:49:43;;;;;;;6.38;5.75;;;22.30;99.90;;;;;;5022692;28;20227;-73
2022/06/29 09:52:09;;;;;;;6.80;5.55;;;22.30;99.90;;;;;;5027639;28;20223;-75
2022/06/29 09:54:45;;;;;;;8.02;6.05;;;22.40;99.90;;;;;;5030534;28;20182;-74
2022/06/29 09:57:12;;;;;;;6.38;5.40;;;22.70;99.90;;;;;;5013883;28;20697;-75
2022/06/29 10:02:48;;;;;;;8.43;5.18;;;23.00;99.90;;;;;;5033614;28;20239;-77
2022/06/29 10:05:16;;;;;;;7.18;5.22;;;23.10;99.90;;;;;;5033341;28;20236;-73
2022/06/29 10:07:51;;;;;;;6.07;4.85;;;23.20;99.90;;;;;;5033493;28;20180;-74
2022/06/29 10:10:21;;;;;;;5.47;4.93;;;23.10;99.90;;;;;;5033178;28;20184;-74
2022/06/29 10:16:02;;;;;;;5.00;4.43;;;23.10;99.90;;;;;;5030298;28;20238;-73
2022/06/29 10:18:34;;;;;;;7.00;5.10;;;23.30;99.90;;;;;;5029779;28;20185;-73
2022/06/29 10:21:00;;;;;;;5.97;4.63;;;23.10;99.90;;;;;;5028250;28;20193;-75
2022/06/29 10:23:44;;;;;;;6.05;4.40;;;23.20;99.90;;;;;;5033310;28;20223;-73
2022/06/29 10:26:38;;;;;;;4.60;4.20;;;23.00;99.90;;;;;;5014457;28;20279;-73
2022/06/29 10:29:09;;;;;;;5.93;4.35;;;23.10;99.90;;;;;;5013722;28;20192;-72
2022/06/29 10:31:56;;;;;;;4.95;4.50;;;22.90;99.90;;;;;;5014186;28;20238;-73
2022/06/29 10:34:31;;;;;;;5.28;4.75;;;23.00;99.90;;;;;;5012216;28;20185;-73
2022/06/29 10:37:00;;;;;;;5.93;5.10;;;23.10;99.90;;;;;;5018480;28;20275;-73
2022/06/29 10:39:26;;;;;;;9.27;4.90;;;23.00;99.90;;;;;;5025828;28;20186;-74
2022/06/29 10:44:59;;;;;;;6.50;4.50;;;23.00;99.90;;;;;;5023061;28;20259;-74
2022/06/29 10:47:25;;;;;;;5.03;4.35;;;23.10;99.90;;;;;;5014244;28;20174;-72
2022/06/29 10:50:22;;;;;;;4.63;4.22;;;23.10;99.90;;;;;;5013561;28;20239;-74
2022/06/29 10:52:49;;;;;;;5.35;4.40;;;23.20;99.90;;;;;;5013683;28;20178;-74
2022/06/29 10:55:16;;;;;;;4.97;4.47;;;23.30;99.90;;;;;;5013248;28;20231;-74
2022/06/29 10:57:43;;;;;;;5.32;4.57;;;23.30;99.90;;;;;;5008358;28;20219;-72
2022/06/29 11:00:20;;;;;;;5.88;4.40;;;23.50;99.90;;;;;;5014566;28;20192;-73
2022/06/29 11:02:45;;;;;;;5.43;4.50;;;23.70;99.90;;;;;;5018633;28;20177;-72
2022/06/29 11:05:11;;;;;;;6.00;4.75;;;23.70;99.90;;;;;;5011240;28;20233;-74
2022/06/29 11:13:11;;;;;;;5.20;4.68;;;23.60;99.90;;;;;;5032195;28;20226;-72
2022/06/29 11:15:45;;;;;;;6.18;5.22;;;23.70;99.90;;;;;;5018658;28;20186;-73
2022/06/29 11:18:12;;;;;;;6.80;5.57;;;23.70;99.90;;;;;;5012809;28;20285;-74
2022/06/29 11:20:39;;;;;;;5.63;4.82;;;23.60;99.90;;;;;;5016038;28;20186;-73
2022/06/29 11:23:12;;;;;;;5.85;5.32;;;23.70;99.90;;;;;;5012998;28;20186;-74
2022/06/29 11:25:44;;;;;;;5.22;4.57;;;23.60;99.90;;;;;;5012560;28;20228;-73
2022/06/29 11:28:10;;;;;;;7.93;5.78;;;23.70;99.90;;;;;;5032585;28;20543;-74
2022/06/29 11:30:36;;;;;;;7.03;5.57;;;23.80;99.90;;;;;;5056231;28;20180;-75
2022/06/29 11:33:10;;;;;;;5.75;5.15;;;23.70;99.90;;;;;;5056113;28;20254;-74
2022/06/29 11:35:38;;;;;;;6.22;5.45;;;23.50;99.90;;;;;;5039350;28;20189;-75
2022/06/29 11:38:05;;;;;;;9.05;5.47;;;23.30;99.90;;;;;;5035652;28;20185;-75
2022/06/29 11:40:41;;;;;;;7.85;5.55;;;23.30;99.90;;;;;;5033265;28;20185;-75
2022/06/29 11:43:17;;;;;;;7.32;6.13;;;23.20;99.90;;;;;;5036154;28;20184;-74
2022/06/29 11:45:51;;;;;;;8.15;6.32;;;23.10;99.90;;;;;;5035640;28;20226;-74
2022/06/29 11:48:21;;;;;;;7.15;6.30;;;23.10;99.90;;;;;;5035955;28;20194;-75
2022/06/29 11:50:51;;;;;;;9.63;6.15;;;23.20;99.90;;;;;;5035544;28;20260;-74
2022/06/29 11:53:54;;;;;;;9.98;6.53;;;23.30;99.90;;;;;;5036005;28;20193;-73
2022/06/29 11:56:23;;;;;;;8.60;6.43;;;23.20;99.90;;;;;;5035866;28;20180;-75
2022/06/29 11:58:51;;;;;;;10.48;7.22;;;23.10;99.90;;;;;;5035802;28;20192;-74
2022/06/29 12:01:18;;;;;;;9.93;6.75;;;22.90;99.90;;;;;;5035094;28;20579;-73
2022/06/29 12:03:55;;;;;;;25.02;16.60;;;23.00;99.90;;;;;;5035850;28;20257;-71
2022/06/29 12:06:24;;;;;;;9.95;7.40;;;23.10;99.90;;;;;;5043126;28;20246;-74
2022/06/29 12:08:51;;;;;;;12.30;8.20;;;23.20;99.90;;;;;;5055608;28;20176;-74
2022/06/29 12:11:17;;;;;;;9.63;7.93;;;22.90;99.90;;;;;;5055482;28;20181;-75
2022/06/29 12:13:43;;;;;;;17.35;10.80;;;22.70;99.90;;;;;;5054766;28;20658;-74
2022/06/29 12:16:10;;;;;;;11.23;8.27;;;22.80;99.90;;;;;;5055194;28;20522;-75
2022/06/29 12:18:35;;;;;;;13.55;9.70;;;22.70;99.90;;;;;;5054777;28;20184;-74
2022/06/29 12:21:01;;;;;;;14.48;9.52;;;22.50;99.90;;;;;;5055259;28;20211;-74
2022/06/29 12:23:28;;;;;;;15.02;9.00;;;22.60;99.90;;;;;;5055322;28;20179;-74
2022/06/29 12:26:00;;;;;;;10.00;8.13;;;22.50;99.90;;;;;;5055309;28;20223;-75
2022/06/29 12:28:26;;;;;;;10.48;8.98;;;22.50;99.90;;;;;;5054909;28;20187;-74
2022/06/29 12:30:51;;;;;;;9.02;7.82;;;22.20;99.90;;;;;;5055020;28;20176;-75
2022/06/29 12:33:18;;;;;;;9.85;8.02;;;22.40;99.90;;;;;;5054952;28;20249;-74
2022/06/29 12:35:43;;;;;;;9.27;7.93;;;22.50;99.90;;;;;;5055054;28;20191;-74
2022/06/29 12:38:09;;;;;;;10.05;8.07;;;22.20;99.90;;;;;;5055014;28;20508;-74
2022/06/29 12:40:35;;;;;;;11.93;8.48;;;22.20;99.90;;;;;;5058919;28;20234;-73
2022/06/29 12:43:01;;;;;;;12.25;8.27;;;22.10;99.90;;;;;;5059019;28;20544;-73
2022/06/29 12:45:26;;;;;;;10.98;8.55;;;22.10;99.90;;;;;;5054791;28;20243;-72
2022/06/29 12:47:52;;;;;;;12.85;7.95;;;22.00;99.90;;;;;;5042635;28;20205;-72
2022/06/29 12:50:18;;;;;;;13.82;8.77;;;21.90;99.90;;;;;;5035103;28;20172;-72
2022/06/29 12:52:47;;;;;;;9.38;7.97;;;21.80;99.90;;;;;;5033496;28;20177;-72
2022/06/29 12:55:13;;;;;;;10.52;8.23;;;22.00;99.90;;;;;;5034157;28;20180;-71
2022/06/29 12:57:42;;;;;;;9.82;8.15;;;21.90;99.90;;;;;;5034225;28;20573;-72
2022/06/29 13:00:10;;;;;;;10.57;8.23;;;21.80;99.90;;;;;;5033980;28;20183;-71
2022/06/29 13:02:36;;;;;;;8.77;7.30;;;22.00;99.90;;;;;;5034503;28;20173;-71
2022/06/29 13:05:02;;;;;;;9.07;7.90;;;22.10;99.90;;;;;;5034576;28;20236;-71